RJTR(METAR)
08/13 13:58
METAR RJTR 130458Z AUTO 17006KT 10SM CLR 34/25 A2975 RMK AO2 SLP072
T03350245 PNO $=
戻る
トップページへ戻る
IMOC Co,.Ltd.